sensor_id;sensor_type;location;lat;lon;timestamp;P1;durP1;ratioP1;P2;durP2;ratioP2
48034;SDS011;33812;46.480;6.834;2024-02-21T00:02:02;2.35;;;1.02;;
48034;SDS011;33812;46.480;6.834;2024-02-21T00:06:04;3.33;;;0.95;;
48034;SDS011;33812;46.480;6.834;2024-02-21T00:10:07;4.78;;;1.15;;
48034;SDS011;33812;46.480;6.834;2024-02-21T00:14:10;10.40;;;1.20;;
48034;SDS011;33812;46.480;6.834;2024-02-21T00:18:14;2.55;;;1.08;;
48034;SDS011;33812;46.480;6.834;2024-02-21T00:22:18;4.30;;;1.02;;
48034;SDS011;33812;46.480;6.834;2024-02-21T00:26:19;3.35;;;0.95;;
48034;SDS011;33812;46.480;6.834;2024-02-21T00:30:22;2.40;;;0.90;;
48034;SDS011;33812;46.480;6.834;2024-02-21T00:34:26;1.52;;;0.77;;
48034;SDS011;33812;46.480;6.834;2024-02-21T00:38:28;1.83;;;0.80;;
48034;SDS011;33812;46.480;6.834;2024-02-21T00:42:33;3.80;;;0.70;;
48034;SDS011;33812;46.480;6.834;2024-02-21T00:46:34;7.68;;;0.73;;
48034;SDS011;33812;46.480;6.834;2024-02-21T00:50:40;1.50;;;0.70;;
48034;SDS011;33812;46.480;6.834;2024-02-21T00:54:42;3.75;;;0.80;;
48034;SDS011;33812;46.480;6.834;2024-02-21T00:58:43;2.88;;;1.02;;
48034;SDS011;33812;46.480;6.834;2024-02-21T01:02:45;1.85;;;0.90;;
48034;SDS011;33812;46.480;6.834;2024-02-21T01:06:48;2.92;;;0.77;;
48034;SDS011;33812;46.480;6.834;2024-02-21T01:10:50;1.88;;;0.60;;
48034;SDS011;33812;46.480;6.834;2024-02-21T01:14:52;1.95;;;0.73;;
48034;SDS011;33812;46.480;6.834;2024-02-21T01:18:54;0.85;;;0.63;;
48034;SDS011;33812;46.480;6.834;2024-02-21T01:22:57;1.67;;;0.63;;
48034;SDS011;33812;46.480;6.834;2024-02-21T01:26:59;0.40;;;0.40;;
48034;SDS011;33812;46.480;6.834;2024-02-21T01:31:00;0.98;;;0.70;;
48034;SDS011;33812;46.480;6.834;2024-02-21T01:35:02;1.80;;;0.77;;
48034;SDS011;33812;46.480;6.834;2024-02-21T01:39:06;0.50;;;0.50;;
48034;SDS011;33812;46.480;6.834;2024-02-21T01:43:15;1.48;;;0.90;;
48034;SDS011;33812;46.480;6.834;2024-02-21T01:47:17;0.90;;;0.70;;
48034;SDS011;33812;46.480;6.834;2024-02-21T01:51:20;0.95;;;0.50;;
48034;SDS011;33812;46.480;6.834;2024-02-21T01:55:23;0.73;;;0.45;;
48034;SDS011;33812;46.480;6.834;2024-02-21T01:59:25;0.80;;;0.57;;
48034;SDS011;33812;46.480;6.834;2024-02-21T02:03:27;1.42;;;0.60;;
48034;SDS011;33812;46.480;6.834;2024-02-21T02:07:30;0.80;;;0.55;;
48034;SDS011;33812;46.480;6.834;2024-02-21T02:11:33;1.15;;;0.50;;
48034;SDS011;33812;46.480;6.834;2024-02-21T02:15:40;0.70;;;0.47;;
48034;SDS011;33812;46.480;6.834;2024-02-21T02:19:42;2.05;;;0.73;;
48034;SDS011;33812;46.480;6.834;2024-02-21T02:23:45;1.20;;;0.40;;
48034;SDS011;33812;46.480;6.834;2024-02-21T02:27:47;0.50;;;0.40;;
48034;SDS011;33812;46.480;6.834;2024-02-21T02:31:48;2.50;;;0.50;;
48034;SDS011;33812;46.480;6.834;2024-02-21T02:35:50;1.17;;;0.52;;
48034;SDS011;33812;46.480;6.834;2024-02-21T02:39:54;1.33;;;0.60;;
48034;SDS011;33812;46.480;6.834;2024-02-21T02:43:55;0.82;;;0.45;;
48034;SDS011;33812;46.480;6.834;2024-02-21T02:47:59;1.98;;;0.40;;
48034;SDS011;33812;46.480;6.834;2024-02-21T02:52:01;0.60;;;0.50;;
48034;SDS011;33812;46.480;6.834;2024-02-21T02:56:04;1.10;;;0.52;;
48034;SDS011;33812;46.480;6.834;2024-02-21T03:00:07;1.58;;;0.70;;
48034;SDS011;33812;46.480;6.834;2024-02-21T03:04:09;0.93;;;0.43;;
48034;SDS011;33812;46.480;6.834;2024-02-21T03:08:11;1.50;;;0.65;;
48034;SDS011;33812;46.480;6.834;2024-02-21T03:12:14;0.50;;;0.50;;
48034;SDS011;33812;46.480;6.834;2024-02-21T03:16:24;1.15;;;0.47;;
48034;SDS011;33812;46.480;6.834;2024-02-21T03:20:26;0.50;;;0.50;;
48034;SDS011;33812;46.480;6.834;2024-02-21T03:24:28;0.70;;;0.60;;
48034;SDS011;33812;46.480;6.834;2024-02-21T03:28:31;0.85;;;0.50;;
48034;SDS011;33812;46.480;6.834;2024-02-21T03:32:33;1.45;;;0.70;;
48034;SDS011;33812;46.480;6.834;2024-02-21T03:36:35;0.73;;;0.40;;
48034;SDS011;33812;46.480;6.834;2024-02-21T03:40:37;0.80;;;0.50;;
48034;SDS011;33812;46.480;6.834;2024-02-21T03:44:40;0.65;;;0.50;;
48034;SDS011;33812;46.480;6.834;2024-02-21T03:48:41;0.55;;;0.50;;
48034;SDS011;33812;46.480;6.834;2024-02-21T03:52:43;0.85;;;0.50;;
48034;SDS011;33812;46.480;6.834;2024-02-21T03:56:45;1.63;;;0.40;;
48034;SDS011;33812;46.480;6.834;2024-02-21T04:00:49;0.60;;;0.47;;
48034;SDS011;33812;46.480;6.834;2024-02-21T04:04:52;0.80;;;0.80;;
48034;SDS011;33812;46.480;6.834;2024-02-21T04:08:53;0.68;;;0.50;;
48034;SDS011;33812;46.480;6.834;2024-02-21T04:12:55;0.55;;;0.38;;
48034;SDS011;33812;46.480;6.834;2024-02-21T04:16:58;0.65;;;0.47;;
48034;SDS011;33812;46.480;6.834;2024-02-21T04:21:00;0.55;;;0.40;;
48034;SDS011;33812;46.480;6.834;2024-02-21T04:25:03;0.82;;;0.40;;
48034;SDS011;33812;46.480;6.834;2024-02-21T04:29:05;0.80;;;0.40;;
48034;SDS011;33812;46.480;6.834;2024-02-21T04:33:08;1.02;;;0.45;;
48034;SDS011;33812;46.480;6.834;2024-02-21T04:37:10;1.20;;;0.60;;
48034;SDS011;33812;46.480;6.834;2024-02-21T04:41:12;0.47;;;0.43;;
48034;SDS011;33812;46.480;6.834;2024-02-21T04:45:14;1.52;;;0.65;;
48034;SDS011;33812;46.480;6.834;2024-02-21T04:49:17;0.65;;;0.50;;
48034;SDS011;33812;46.480;6.834;2024-02-21T04:53:19;0.65;;;0.50;;
48034;SDS011;33812;46.480;6.834;2024-02-21T04:57:20;1.17;;;0.50;;
48034;SDS011;33812;46.480;6.834;2024-02-21T05:01:22;1.17;;;0.43;;
48034;SDS011;33812;46.480;6.834;2024-02-21T05:05:25;3.28;;;0.50;;
48034;SDS011;33812;46.480;6.834;2024-02-21T05:09:27;0.75;;;0.50;;
48034;SDS011;33812;46.480;6.834;2024-02-21T05:13:29;0.70;;;0.50;;
48034;SDS011;33812;46.480;6.834;2024-02-21T05:17:31;1.02;;;0.45;;
48034;SDS011;33812;46.480;6.834;2024-02-21T05:21:34;1.25;;;0.40;;
48034;SDS011;33812;46.480;6.834;2024-02-21T05:25:36;0.70;;;0.50;;
48034;SDS011;33812;46.480;6.834;2024-02-21T05:29:37;1.15;;;0.50;;
48034;SDS011;33812;46.480;6.834;2024-02-21T05:33:39;0.40;;;0.40;;
48034;SDS011;33812;46.480;6.834;2024-02-21T05:37:42;1.55;;;0.50;;
48034;SDS011;33812;46.480;6.834;2024-02-21T05:41:46;0.52;;;0.30;;
48034;SDS011;33812;46.480;6.834;2024-02-21T05:45:48;0.57;;;0.50;;
48034;SDS011;33812;46.480;6.834;2024-02-21T05:49:50;1.30;;;0.60;;
48034;SDS011;33812;46.480;6.834;2024-02-21T05:53:55;1.10;;;0.45;;
48034;SDS011;33812;46.480;6.834;2024-02-21T05:57:56;0.57;;;0.38;;
48034;SDS011;33812;46.480;6.834;2024-02-21T06:01:58;0.88;;;0.50;;
48034;SDS011;33812;46.480;6.834;2024-02-21T06:06:00;1.45;;;0.55;;
48034;SDS011;33812;46.480;6.834;2024-02-21T06:10:07;1.40;;;0.57;;
48034;SDS011;33812;46.480;6.834;2024-02-21T06:14:10;0.60;;;0.40;;
48034;SDS011;33812;46.480;6.834;2024-02-21T06:18:12;0.80;;;0.50;;
48034;SDS011;33812;46.480;6.834;2024-02-21T06:22:13;0.43;;;0.40;;
48034;SDS011;33812;46.480;6.834;2024-02-21T06:26:17;1.60;;;0.50;;
48034;SDS011;33812;46.480;6.834;2024-02-21T06:30:18;0.80;;;0.50;;
48034;SDS011;33812;46.480;6.834;2024-02-21T06:34:20;0.75;;;0.52;;
48034;SDS011;33812;46.480;6.834;2024-02-21T06:38:22;0.90;;;0.50;;
48034;SDS011;33812;46.480;6.834;2024-02-21T06:42:25;4.00;;;0.45;;
48034;SDS011;33812;46.480;6.834;2024-02-21T06:46:27;0.65;;;0.40;;
48034;SDS011;33812;46.480;6.834;2024-02-21T06:50:31;2.45;;;0.93;;
48034;SDS011;33812;46.480;6.834;2024-02-21T06:54:32;1.15;;;0.60;;
48034;SDS011;33812;46.480;6.834;2024-02-21T06:58:35;5.32;;;0.70;;
48034;SDS011;33812;46.480;6.834;2024-02-21T07:02:38;5.82;;;0.60;;
48034;SDS011;33812;46.480;6.834;2024-02-21T07:06:40;7.15;;;0.70;;
48034;SDS011;33812;46.480;6.834;2024-02-21T07:10:42;7.20;;;1.10;;
48034;SDS011;33812;46.480;6.834;2024-02-21T07:14:45;0.90;;;0.60;;
48034;SDS011;33812;46.480;6.834;2024-02-21T07:18:47;3.38;;;0.75;;
48034;SDS011;33812;46.480;6.834;2024-02-21T07:22:49;1.38;;;0.47;;
48034;SDS011;33812;46.480;6.834;2024-02-21T07:26:52;2.55;;;0.68;;
48034;SDS011;33812;46.480;6.834;2024-02-21T07:30:55;6.78;;;0.50;;
48034;SDS011;33812;46.480;6.834;2024-02-21T07:34:58;2.03;;;0.70;;
48034;SDS011;33812;46.480;6.834;2024-02-21T07:39:00;4.35;;;0.90;;
48034;SDS011;33812;46.480;6.834;2024-02-21T07:43:01;2.42;;;0.70;;
48034;SDS011;33812;46.480;6.834;2024-02-21T07:47:05;4.60;;;0.52;;
48034;SDS011;33812;46.480;6.834;2024-02-21T07:51:07;6.60;;;0.83;;
48034;SDS011;33812;46.480;6.834;2024-02-21T07:55:09;5.13;;;1.00;;
48034;SDS011;33812;46.480;6.834;2024-02-21T07:59:11;3.83;;;0.50;;
48034;SDS011;33812;46.480;6.834;2024-02-21T08:03:15;1.25;;;0.63;;
48034;SDS011;33812;46.480;6.834;2024-02-21T08:07:17;1.80;;;0.70;;
48034;SDS011;33812;46.480;6.834;2024-02-21T08:11:19;4.07;;;1.02;;
48034;SDS011;33812;46.480;6.834;2024-02-21T08:15:21;3.70;;;1.00;;
48034;SDS011;33812;46.480;6.834;2024-02-21T08:19:29;6.60;;;0.82;;
48034;SDS011;33812;46.480;6.834;2024-02-21T08:23:31;10.25;;;0.70;;
48034;SDS011;33812;46.480;6.834;2024-02-21T08:27:33;4.30;;;0.90;;
48034;SDS011;33812;46.480;6.834;2024-02-21T08:31:35;3.65;;;0.80;;
48034;SDS011;33812;46.480;6.834;2024-02-21T08:35:38;4.15;;;0.80;;
48034;SDS011;33812;46.480;6.834;2024-02-21T08:39:40;2.55;;;0.80;;
48034;SDS011;33812;46.480;6.834;2024-02-21T08:43:44;2.88;;;0.75;;
48034;SDS011;33812;46.480;6.834;2024-02-21T08:47:46;1.48;;;0.57;;
48034;SDS011;33812;46.480;6.834;2024-02-21T08:51:49;4.47;;;0.50;;
48034;SDS011;33812;46.480;6.834;2024-02-21T08:55:51;6.38;;;0.90;;
48034;SDS011;33812;46.480;6.834;2024-02-21T08:59:54;10.30;;;1.20;;
48034;SDS011;33812;46.480;6.834;2024-02-21T09:03:56;2.75;;;1.05;;
48034;SDS011;33812;46.480;6.834;2024-02-21T09:07:59;5.60;;;1.35;;
48034;SDS011;33812;46.480;6.834;2024-02-21T09:12:01;3.45;;;1.10;;
48034;SDS011;33812;46.480;6.834;2024-02-21T09:16:06;3.00;;;0.70;;
48034;SDS011;33812;46.480;6.834;2024-02-21T09:20:09;1.10;;;0.77;;
48034;SDS011;33812;46.480;6.834;2024-02-21T09:24:17;2.15;;;1.30;;
48034;SDS011;33812;46.480;6.834;2024-02-21T09:28:19;4.07;;;0.90;;
48034;SDS011;33812;46.480;6.834;2024-02-21T09:32:21;14.10;;;1.42;;
48034;SDS011;33812;46.480;6.834;2024-02-21T09:36:23;6.88;;;1.00;;
48034;SDS011;33812;46.480;6.834;2024-02-21T09:40:26;5.88;;;1.02;;
48034;SDS011;33812;46.480;6.834;2024-02-21T09:44:30;6.63;;;0.93;;
48034;SDS011;33812;46.480;6.834;2024-02-21T09:48:41;9.18;;;1.45;;
48034;SDS011;33812;46.480;6.834;2024-02-21T09:52:53;23.42;;;1.58;;
48034;SDS011;33812;46.480;6.834;2024-02-21T09:56:57;14.00;;;2.55;;
48034;SDS011;33812;46.480;6.834;2024-02-21T10:00:59;11.27;;;1.73;;
48034;SDS011;33812;46.480;6.834;2024-02-21T10:05:01;10.75;;;1.60;;
48034;SDS011;33812;46.480;6.834;2024-02-21T10:09:05;6.25;;;1.38;;
48034;SDS011;33812;46.480;6.834;2024-02-21T10:13:09;6.35;;;1.30;;
48034;SDS011;33812;46.480;6.834;2024-02-21T10:17:15;7.13;;;1.20;;
48034;SDS011;33812;46.480;6.834;2024-02-21T10:21:19;11.63;;;1.48;;
48034;SDS011;33812;46.480;6.834;2024-02-21T10:25:21;16.33;;;2.25;;
48034;SDS011;33812;46.480;6.834;2024-02-21T10:29:24;11.50;;;1.35;;
48034;SDS011;33812;46.480;6.834;2024-02-21T10:33:26;3.40;;;1.13;;
48034;SDS011;33812;46.480;6.834;2024-02-21T10:37:30;8.07;;;1.50;;
48034;SDS011;33812;46.480;6.834;2024-02-21T10:41:32;7.28;;;1.35;;
48034;SDS011;33812;46.480;6.834;2024-02-21T10:45:35;11.77;;;1.45;;
48034;SDS011;33812;46.480;6.834;2024-02-21T10:49:39;6.60;;;1.57;;
48034;SDS011;33812;46.480;6.834;2024-02-21T10:53:45;31.15;;;7.00;;
48034;SDS011;33812;46.480;6.834;2024-02-21T10:57:52;56.88;;;11.25;;
48034;SDS011;33812;46.480;6.834;2024-02-21T11:01:56;18.35;;;5.93;;
48034;SDS011;33812;46.480;6.834;2024-02-21T11:05:58;42.75;;;10.57;;
48034;SDS011;33812;46.480;6.834;2024-02-21T11:10:01;36.55;;;9.68;;
48034;SDS011;33812;46.480;6.834;2024-02-21T11:14:04;32.15;;;6.75;;
48034;SDS011;33812;46.480;6.834;2024-02-21T11:18:08;19.23;;;6.05;;
48034;SDS011;33812;46.480;6.834;2024-02-21T11:22:14;23.70;;;5.70;;
48034;SDS011;33812;46.480;6.834;2024-02-21T11:26:18;23.75;;;5.13;;
48034;SDS011;33812;46.480;6.834;2024-02-21T11:30:20;14.13;;;4.75;;
48034;SDS011;33812;46.480;6.834;2024-02-21T11:34:29;17.00;;;5.25;;
48034;SDS011;33812;46.480;6.834;2024-02-21T11:38:33;8.52;;;1.98;;
48034;SDS011;33812;46.480;6.834;2024-02-21T11:42:35;5.50;;;1.13;;
48034;SDS011;33812;46.480;6.834;2024-02-21T11:46:38;6.22;;;1.02;;
48034;SDS011;33812;46.480;6.834;2024-02-21T11:50:41;8.80;;;1.33;;
48034;SDS011;33812;46.480;6.834;2024-02-21T11:54:43;8.13;;;1.10;;
48034;SDS011;33812;46.480;6.834;2024-02-21T11:58:45;2.95;;;0.82;;
48034;SDS011;33812;46.480;6.834;2024-02-21T12:02:47;3.25;;;0.90;;
48034;SDS011;33812;46.480;6.834;2024-02-21T12:06:53;4.68;;;1.17;;
48034;SDS011;33812;46.480;6.834;2024-02-21T12:10:55;4.83;;;0.93;;
48034;SDS011;33812;46.480;6.834;2024-02-21T12:14:57;1.92;;;0.80;;
48034;SDS011;33812;46.480;6.834;2024-02-21T12:18:59;11.38;;;1.20;;
48034;SDS011;33812;46.480;6.834;2024-02-21T12:23:03;8.88;;;0.90;;
48034;SDS011;33812;46.480;6.834;2024-02-21T12:27:05;5.85;;;1.10;;
48034;SDS011;33812;46.480;6.834;2024-02-21T12:31:07;2.92;;;0.70;;
48034;SDS011;33812;46.480;6.834;2024-02-21T12:35:10;4.22;;;0.73;;
48034;SDS011;33812;46.480;6.834;2024-02-21T12:39:13;4.53;;;0.85;;
48034;SDS011;33812;46.480;6.834;2024-02-21T12:43:15;6.68;;;0.63;;
48034;SDS011;33812;46.480;6.834;2024-02-21T12:47:17;3.03;;;1.00;;
48034;SDS011;33812;46.480;6.834;2024-02-21T12:51:23;3.70;;;1.30;;
48034;SDS011;33812;46.480;6.834;2024-02-21T12:55:26;3.97;;;1.05;;
48034;SDS011;33812;46.480;6.834;2024-02-21T12:59:28;2.17;;;0.90;;
48034;SDS011;33812;46.480;6.834;2024-02-21T13:03:30;5.93;;;1.25;;
48034;SDS011;33812;46.480;6.834;2024-02-21T13:07:32;3.03;;;1.02;;
48034;SDS011;33812;46.480;6.834;2024-02-21T13:11:35;6.03;;;1.02;;
48034;SDS011;33812;46.480;6.834;2024-02-21T13:15:37;1.70;;;1.02;;
48034;SDS011;33812;46.480;6.834;2024-02-21T13:19:43;2.17;;;1.20;;
48034;SDS011;33812;46.480;6.834;2024-02-21T13:23:44;7.18;;;1.20;;
48034;SDS011;33812;46.480;6.834;2024-02-21T13:27:47;4.68;;;1.10;;
48034;SDS011;33812;46.480;6.834;2024-02-21T13:31:49;1.02;;;0.70;;
48034;SDS011;33812;46.480;6.834;2024-02-21T13:35:51;2.30;;;1.08;;
48034;SDS011;33812;46.480;6.834;2024-02-21T13:39:53;7.25;;;1.08;;
48034;SDS011;33812;46.480;6.834;2024-02-21T13:43:56;2.75;;;1.08;;
48034;SDS011;33812;46.480;6.834;2024-02-21T13:48:00;2.83;;;1.33;;
48034;SDS011;33812;46.480;6.834;2024-02-21T13:52:02;1.95;;;0.90;;
48034;SDS011;33812;46.480;6.834;2024-02-21T13:56:04;2.53;;;0.90;;
48034;SDS011;33812;46.480;6.834;2024-02-21T14:00:08;6.43;;;1.30;;
48034;SDS011;33812;46.480;6.834;2024-02-21T14:04:11;2.08;;;1.10;;
48034;SDS011;33812;46.480;6.834;2024-02-21T14:08:13;2.83;;;1.40;;
48034;SDS011;33812;46.480;6.834;2024-02-21T14:12:15;5.18;;;1.00;;
48034;SDS011;33812;46.480;6.834;2024-02-21T14:16:22;2.35;;;1.00;;
48034;SDS011;33812;46.480;6.834;2024-02-21T14:20:23;4.57;;;0.73;;
48034;SDS011;33812;46.480;6.834;2024-02-21T14:24:25;7.68;;;1.40;;
48034;SDS011;33812;46.480;6.834;2024-02-21T14:28:27;5.28;;;1.20;;
48034;SDS011;33812;46.480;6.834;2024-02-21T14:32:31;2.28;;;1.30;;
48034;SDS011;33812;46.480;6.834;2024-02-21T14:36:32;3.45;;;0.90;;
48034;SDS011;33812;46.480;6.834;2024-02-21T14:40:34;6.45;;;1.23;;
48034;SDS011;33812;46.480;6.834;2024-02-21T14:44:36;1.73;;;0.90;;
48034;SDS011;33812;46.480;6.834;2024-02-21T14:48:39;10.70;;;2.15;;
48034;SDS011;33812;46.480;6.834;2024-02-21T14:52:41;3.17;;;1.10;;
48034;SDS011;33812;46.480;6.834;2024-02-21T14:56:44;3.75;;;1.40;;
48034;SDS011;33812;46.480;6.834;2024-02-21T15:00:46;8.68;;;1.20;;
48034;SDS011;33812;46.480;6.834;2024-02-21T15:04:49;5.13;;;1.15;;
48034;SDS011;33812;46.480;6.834;2024-02-21T15:08:51;10.63;;;1.30;;
48034;SDS011;33812;46.480;6.834;2024-02-21T15:12:53;5.88;;;1.10;;
48034;SDS011;33812;46.480;6.834;2024-02-21T15:16:56;4.57;;;0.90;;
48034;SDS011;33812;46.480;6.834;2024-02-21T15:20:59;2.05;;;1.35;;
48034;SDS011;33812;46.480;6.834;2024-02-21T15:25:01;2.33;;;1.10;;
48034;SDS011;33812;46.480;6.834;2024-02-21T15:29:04;7.55;;;1.00;;
48034;SDS011;33812;46.480;6.834;2024-02-21T15:33:06;3.80;;;1.30;;
48034;SDS011;33812;46.480;6.834;2024-02-21T15:37:10;3.58;;;1.20;;
48034;SDS011;33812;46.480;6.834;2024-02-21T15:41:13;1.65;;;0.80;;
48034;SDS011;33812;46.480;6.834;2024-02-21T15:45:15;1.38;;;0.90;;
48034;SDS011;33812;46.480;6.834;2024-02-21T15:49:17;3.20;;;1.00;;
48034;SDS011;33812;46.480;6.834;2024-02-21T15:53:21;1.52;;;0.70;;
48034;SDS011;33812;46.480;6.834;2024-02-21T15:57:24;2.23;;;0.90;;
48034;SDS011;33812;46.480;6.834;2024-02-21T16:01:26;1.88;;;0.90;;
48034;SDS011;33812;46.480;6.834;2024-02-21T16:05:28;3.08;;;1.15;;
48034;SDS011;33812;46.480;6.834;2024-02-21T16:09:31;1.33;;;0.90;;
48034;SDS011;33812;46.480;6.834;2024-02-21T16:13:32;1.65;;;0.75;;
48034;SDS011;33812;46.480;6.834;2024-02-21T16:17:34;3.65;;;0.95;;
48034;SDS011;33812;46.480;6.834;2024-02-21T16:21:36;7.10;;;2.20;;
48034;SDS011;33812;46.480;6.834;2024-02-21T16:25:39;77.22;;;21.35;;
48034;SDS011;33812;46.480;6.834;2024-02-21T16:29:41;56.97;;;19.17;;
48034;SDS011;33812;46.480;6.834;2024-02-21T16:33:42;41.30;;;17.02;;
48034;SDS011;33812;46.480;6.834;2024-02-21T16:37:45;47.80;;;15.73;;
48034;SDS011;33812;46.480;6.834;2024-02-21T16:41:48;41.15;;;13.95;;
48034;SDS011;33812;46.480;6.834;2024-02-21T16:45:53;35.72;;;12.88;;
48034;SDS011;33812;46.480;6.834;2024-02-21T16:49:55;32.92;;;12.38;;
48034;SDS011;33812;46.480;6.834;2024-02-21T16:53:58;31.58;;;11.85;;
48034;SDS011;33812;46.480;6.834;2024-02-21T16:58:02;29.52;;;11.23;;
48034;SDS011;33812;46.480;6.834;2024-02-21T17:02:04;34.22;;;11.15;;
48034;SDS011;33812;46.480;6.834;2024-02-21T17:06:07;28.75;;;9.57;;
48034;SDS011;33812;46.480;6.834;2024-02-21T17:10:09;24.20;;;8.02;;
48034;SDS011;33812;46.480;6.834;2024-02-21T17:14:12;27.20;;;9.75;;
48034;SDS011;33812;46.480;6.834;2024-02-21T17:18:14;34.85;;;9.68;;
48034;SDS011;33812;46.480;6.834;2024-02-21T17:22:16;20.25;;;8.65;;
48034;SDS011;33812;46.480;6.834;2024-02-21T17:26:17;22.88;;;10.00;;
48034;SDS011;33812;46.480;6.834;2024-02-21T17:30:22;24.75;;;9.00;;
48034;SDS011;33812;46.480;6.834;2024-02-21T17:34:24;19.67;;;11.00;;
48034;SDS011;33812;46.480;6.834;2024-02-21T17:38:26;24.27;;;9.95;;
48034;SDS011;33812;46.480;6.834;2024-02-21T17:42:29;23.90;;;8.57;;
48034;SDS011;33812;46.480;6.834;2024-02-21T17:46:33;17.92;;;9.07;;
48034;SDS011;33812;46.480;6.834;2024-02-21T17:50:40;18.38;;;9.60;;
48034;SDS011;33812;46.480;6.834;2024-02-21T17:54:43;13.50;;;5.25;;
48034;SDS011;33812;46.480;6.834;2024-02-21T17:58:47;7.63;;;3.20;;
48034;SDS011;33812;46.480;6.834;2024-02-21T18:02:50;8.65;;;3.15;;
48034;SDS011;33812;46.480;6.834;2024-02-21T18:06:52;11.32;;;3.30;;
48034;SDS011;33812;46.480;6.834;2024-02-21T18:10:54;13.80;;;3.13;;
48034;SDS011;33812;46.480;6.834;2024-02-21T18:14:56;14.23;;;4.35;;
48034;SDS011;33812;46.480;6.834;2024-02-21T18:18:59;9.68;;;3.20;;
48034;SDS011;33812;46.480;6.834;2024-02-21T18:23:04;15.73;;;3.35;;
48034;SDS011;33812;46.480;6.834;2024-02-21T18:27:06;11.90;;;3.55;;
48034;SDS011;33812;46.480;6.834;2024-02-21T18:31:08;10.27;;;2.67;;
48034;SDS011;33812;46.480;6.834;2024-02-21T18:35:12;5.43;;;2.50;;
48034;SDS011;33812;46.480;6.834;2024-02-21T18:39:14;14.07;;;3.55;;
48034;SDS011;33812;46.480;6.834;2024-02-21T18:43:16;16.40;;;2.33;;
48034;SDS011;33812;46.480;6.834;2024-02-21T18:47:17;14.82;;;3.00;;
48034;SDS011;33812;46.480;6.834;2024-02-21T18:51:21;4.65;;;2.20;;
48034;SDS011;33812;46.480;6.834;2024-02-21T18:55:23;5.32;;;1.50;;
48034;SDS011;33812;46.480;6.834;2024-02-21T18:59:25;18.73;;;2.45;;
48034;SDS011;33812;46.480;6.834;2024-02-21T19:03:28;7.32;;;2.00;;
48034;SDS011;33812;46.480;6.834;2024-02-21T19:07:31;8.68;;;1.80;;
48034;SDS011;33812;46.480;6.834;2024-02-21T19:11:34;12.07;;;1.80;;
48034;SDS011;33812;46.480;6.834;2024-02-21T19:15:36;13.25;;;2.00;;
48034;SDS011;33812;46.480;6.834;2024-02-21T19:19:38;10.23;;;1.90;;
48034;SDS011;33812;46.480;6.834;2024-02-21T19:23:43;12.25;;;1.98;;
48034;SDS011;33812;46.480;6.834;2024-02-21T19:27:45;12.65;;;2.03;;
48034;SDS011;33812;46.480;6.834;2024-02-21T19:31:47;6.97;;;1.90;;
48034;SDS011;33812;46.480;6.834;2024-02-21T19:35:48;8.52;;;1.73;;
48034;SDS011;33812;46.480;6.834;2024-02-21T19:39:52;6.07;;;1.40;;
48034;SDS011;33812;46.480;6.834;2024-02-21T19:43:53;10.73;;;1.88;;
48034;SDS011;33812;46.480;6.834;2024-02-21T19:47:55;11.55;;;2.83;;
48034;SDS011;33812;46.480;6.834;2024-02-21T19:51:58;7.32;;;2.15;;
48034;SDS011;33812;46.480;6.834;2024-02-21T19:56:01;15.45;;;2.42;;
48034;SDS011;33812;46.480;6.834;2024-02-21T20:00:04;6.68;;;2.50;;
48034;SDS011;33812;46.480;6.834;2024-02-21T20:04:06;19.90;;;2.60;;
48034;SDS011;33812;46.480;6.834;2024-02-21T20:08:09;11.60;;;1.77;;
48034;SDS011;33812;46.480;6.834;2024-02-21T20:12:12;9.27;;;2.20;;
48034;SDS011;33812;46.480;6.834;2024-02-21T20:16:15;11.10;;;2.15;;
48034;SDS011;33812;46.480;6.834;2024-02-21T20:20:17;12.80;;;2.63;;
48034;SDS011;33812;46.480;6.834;2024-02-21T20:24:18;8.27;;;1.77;;
48034;SDS011;33812;46.480;6.834;2024-02-21T20:28:22;13.48;;;2.28;;
48034;SDS011;33812;46.480;6.834;2024-02-21T20:32:24;10.93;;;2.05;;
48034;SDS011;33812;46.480;6.834;2024-02-21T20:36:26;6.72;;;2.00;;
48034;SDS011;33812;46.480;6.834;2024-02-21T20:40:28;10.55;;;1.75;;
48034;SDS011;33812;46.480;6.834;2024-02-21T20:44:31;6.57;;;2.17;;
48034;SDS011;33812;46.480;6.834;2024-02-21T20:48:32;5.72;;;2.33;;
48034;SDS011;33812;46.480;6.834;2024-02-21T20:52:34;3.78;;;1.98;;
48034;SDS011;33812;46.480;6.834;2024-02-21T20:56:36;4.43;;;2.00;;
48034;SDS011;33812;46.480;6.834;2024-02-21T21:00:39;4.10;;;2.13;;
48034;SDS011;33812;46.480;6.834;2024-02-21T21:04:41;6.03;;;1.95;;
48034;SDS011;33812;46.480;6.834;2024-02-21T21:08:43;5.90;;;1.70;;
48034;SDS011;33812;46.480;6.834;2024-02-21T21:12:45;3.28;;;1.67;;
48034;SDS011;33812;46.480;6.834;2024-02-21T21:16:49;5.28;;;1.92;;
48034;SDS011;33812;46.480;6.834;2024-02-21T21:20:51;3.85;;;1.75;;
48034;SDS011;33812;46.480;6.834;2024-02-21T21:24:52;4.72;;;2.15;;
48034;SDS011;33812;46.480;6.834;2024-02-21T21:28:55;5.82;;;2.08;;
48034;SDS011;33812;46.480;6.834;2024-02-21T21:32:59;6.90;;;1.80;;
48034;SDS011;33812;46.480;6.834;2024-02-21T21:37:01;3.22;;;1.95;;
48034;SDS011;33812;46.480;6.834;2024-02-21T21:41:03;19.65;;;3.15;;
48034;SDS011;33812;46.480;6.834;2024-02-21T21:45:07;4.40;;;1.90;;
48034;SDS011;33812;46.480;6.834;2024-02-21T21:49:11;4.57;;;1.85;;
48034;SDS011;33812;46.480;6.834;2024-02-21T21:53:13;3.30;;;1.50;;
48034;SDS011;33812;46.480;6.834;2024-02-21T21:57:14;4.13;;;1.90;;
48034;SDS011;33812;46.480;6.834;2024-02-21T22:01:16;3.05;;;1.90;;
48034;SDS011;33812;46.480;6.834;2024-02-21T22:05:19;3.10;;;1.70;;
48034;SDS011;33812;46.480;6.834;2024-02-21T22:09:21;4.47;;;1.90;;
48034;SDS011;33812;46.480;6.834;2024-02-21T22:13:23;3.08;;;1.60;;
48034;SDS011;33812;46.480;6.834;2024-02-21T22:17:25;2.65;;;1.73;;
48034;SDS011;33812;46.480;6.834;2024-02-21T22:21:28;3.95;;;1.40;;
48034;SDS011;33812;46.480;6.834;2024-02-21T22:25:30;3.13;;;1.52;;
48034;SDS011;33812;46.480;6.834;2024-02-21T22:29:32;7.22;;;1.70;;
48034;SDS011;33812;46.480;6.834;2024-02-21T22:33:36;4.00;;;2.00;;
48034;SDS011;33812;46.480;6.834;2024-02-21T22:37:39;2.83;;;1.83;;
48034;SDS011;33812;46.480;6.834;2024-02-21T22:41:42;2.72;;;1.48;;
48034;SDS011;33812;46.480;6.834;2024-02-21T22:45:45;3.03;;;1.50;;
48034;SDS011;33812;46.480;6.834;2024-02-21T22:49:49;2.70;;;1.42;;
48034;SDS011;33812;46.480;6.834;2024-02-21T22:53:52;1.95;;;1.33;;
48034;SDS011;33812;46.480;6.834;2024-02-21T22:57:54;2.10;;;1.55;;
48034;SDS011;33812;46.480;6.834;2024-02-21T23:01:56;3.25;;;1.73;;
48034;SDS011;33812;46.480;6.834;2024-02-21T23:05:58;2.10;;;1.45;;
48034;SDS011;33812;46.480;6.834;2024-02-21T23:10:03;1.95;;;1.30;;
48034;SDS011;33812;46.480;6.834;2024-02-21T23:14:05;2.55;;;1.70;;
48034;SDS011;33812;46.480;6.834;2024-02-21T23:18:07;2.85;;;1.40;;
48034;SDS011;33812;46.480;6.834;2024-02-21T23:22:08;3.92;;;1.77;;
48034;SDS011;33812;46.480;6.834;2024-02-21T23:26:11;4.22;;;1.88;;
48034;SDS011;33812;46.480;6.834;2024-02-21T23:30:13;4.93;;;1.58;;
48034;SDS011;33812;46.480;6.834;2024-02-21T23:34:15;3.40;;;1.50;;
48034;SDS011;33812;46.480;6.834;2024-02-21T23:38:17;2.78;;;1.58;;
48034;SDS011;33812;46.480;6.834;2024-02-21T23:42:20;3.28;;;1.52;;
48034;SDS011;33812;46.480;6.834;2024-02-21T23:46:21;3.88;;;1.40;;
48034;SDS011;33812;46.480;6.834;2024-02-21T23:50:24;1.23;;;1.13;;
48034;SDS011;33812;46.480;6.834;2024-02-21T23:54:26;2.25;;;1.30;;
48034;SDS011;33812;46.480;6.834;2024-02-21T23:58:29;3.83;;;1.63;;
